createdAt,value
2018-06-13T00:00:25.538Z,18.26
2018-06-13T00:00:51.685Z,18.31
2018-06-13T00:01:17.823Z,18.28
2018-06-13T00:01:43.980Z,18.29
2018-06-13T00:02:10.119Z,18.26
2018-06-13T00:02:36.257Z,18.34
2018-06-13T00:03:02.400Z,18.35
2018-06-13T00:03:28.556Z,18.23
2018-06-13T00:03:54.701Z,18.38
2018-06-13T00:04:20.861Z,18.31
2018-06-13T00:04:46.998Z,18.29
2018-06-13T00:05:13.136Z,18.35
2018-06-13T00:05:39.276Z,18.37
2018-06-13T00:06:05.425Z,18.34
2018-06-13T00:06:31.588Z,18.35
2018-06-13T00:06:57.721Z,18.4
2018-06-13T00:07:23.863Z,18.35
2018-06-13T00:07:50.004Z,18.41
2018-06-13T00:08:16.142Z,18.35
2018-06-13T00:08:42.363Z,18.37
2018-06-13T00:09:08.531Z,18.35
2018-06-13T00:09:34.791Z,18.41
2018-06-13T00:10:00.879Z,18.4
2018-06-13T00:10:27.019Z,18.37
2018-06-13T00:10:53.221Z,18.37
2018-06-13T00:11:19.328Z,18.25
2018-06-13T00:11:45.467Z,18.28
2018-06-13T00:12:11.610Z,18.25
2018-06-13T00:12:37.762Z,18.28
2018-06-13T00:13:03.955Z,18.28
2018-06-13T00:13:30.086Z,18.28
2018-06-13T00:13:56.249Z,18.26
2018-06-13T00:14:22.389Z,18.28
2018-06-13T00:14:48.564Z,18.29
2018-06-13T00:15:14.731Z,18.26
2018-06-13T00:15:40.869Z,18.29
2018-06-13T00:16:07.014Z,18.31
2018-06-13T00:16:33.143Z,18.29
2018-06-13T00:16:59.291Z,18.29
2018-06-13T00:17:25.457Z,18.33
2018-06-13T00:17:51.617Z,18.26
2018-06-13T00:18:17.760Z,18.26
2018-06-13T00:18:43.898Z,18.26
2018-06-13T00:19:10.043Z,18.28
2018-06-13T00:19:36.187Z,18.26
2018-06-13T00:20:02.324Z,18.28
2018-06-13T00:20:28.467Z,18.28
2018-06-13T00:20:54.607Z,18.26
2018-06-13T00:21:20.748Z,18.25
2018-06-13T00:21:46.911Z,18.33
2018-06-13T00:22:13.047Z,18.28
2018-06-13T00:22:39.189Z,18.28
2018-06-13T00:23:05.329Z,18.28
2018-06-13T00:23:31.474Z,18.22
2018-06-13T00:23:57.614Z,18.29
2018-06-13T00:24:23.773Z,18.25
2018-06-13T00:24:49.924Z,18.23
2018-06-13T00:25:16.057Z,18.28
2018-06-13T00:25:42.222Z,18.28
2018-06-13T00:26:08.363Z,18.25
2018-06-13T00:26:34.545Z,18.2
2018-06-13T00:27:00.710Z,18.11
2018-06-13T00:27:26.848Z,18.2
2018-06-13T00:27:52.985Z,18.28
2018-06-13T00:28:19.126Z,18.25
2018-06-13T00:28:45.261Z,18.2
2018-06-13T00:29:11.407Z,18.31
2018-06-13T00:29:37.571Z,18.26
2018-06-13T00:30:03.707Z,18.26
2018-06-13T00:30:29.850Z,18.23
2018-06-13T00:30:55.990Z,18.29
2018-06-13T00:31:22.133Z,18.29
2018-06-13T00:31:48.298Z,18.25
2018-06-13T00:32:14.435Z,18.22
2018-06-13T00:32:40.598Z,18.22
2018-06-13T00:33:06.745Z,18.22
2018-06-13T00:33:32.907Z,18.23
2018-06-13T00:33:59.065Z,18.23
2018-06-13T00:34:25.208Z,18.22
2018-06-13T00:34:51.344Z,18.18
2018-06-13T00:35:17.483Z,18.19
2018-06-13T00:35:43.628Z,18.11
2018-06-13T00:36:09.769Z,18.07
2018-06-13T00:36:35.904Z,18.2
2018-06-13T00:37:02.103Z,18.2
2018-06-13T00:37:28.231Z,18.13
2018-06-13T00:37:54.377Z,18.11
2018-06-13T00:38:20.529Z,18.1
2018-06-13T00:38:46.676Z,18.15
2018-06-13T00:39:12.817Z,18.22
2018-06-13T00:39:38.950Z,18.18
2018-06-13T00:40:05.088Z,18.16
2018-06-13T00:40:31.225Z,18.13
2018-06-13T00:40:57.393Z,18.22
2018-06-13T00:41:23.528Z,18.08
2018-06-13T00:41:49.662Z,18.07
2018-06-13T00:42:15.824Z,18.15
2018-06-13T00:42:41.978Z,18.15
2018-06-13T00:43:08.117Z,18.18
2018-06-13T00:43:34.253Z,18.2
2018-06-13T00:44:00.392Z,18.19
2018-06-13T00:44:26.536Z,18.11
2018-06-13T00:44:52.692Z,18.08
2018-06-13T00:45:18.835Z,18.11
2018-06-13T00:45:45.020Z,18.18
2018-06-13T00:46:11.154Z,18.19
2018-06-13T00:46:37.296Z,18.19
2018-06-13T00:47:03.437Z,18.2
2018-06-13T00:47:29.577Z,18.15
2018-06-13T00:47:55.712Z,18.19
2018-06-13T00:48:21.861Z,18.16
2018-06-13T00:48:48.012Z,18.08
2018-06-13T00:49:14.161Z,18.2
2018-06-13T00:49:40.301Z,18.16
2018-06-13T00:50:06.445Z,18.13
2018-06-13T00:50:32.612Z,18.15
2018-06-13T00:50:58.744Z,18.16
2018-06-13T00:51:24.885Z,18.16
2018-06-13T00:51:51.022Z,18.13
2018-06-13T00:52:17.167Z,18.13
2018-06-13T00:52:43.305Z,18.18
2018-06-13T00:53:09.445Z,18.16
2018-06-13T00:53:35.582Z,18.16
2018-06-13T00:54:01.725Z,18.1
2018-06-13T00:54:27.860Z,18.13
2018-06-13T00:54:54.006Z,18.08
2018-06-13T00:55:20.141Z,18.15
2018-06-13T00:55:46.286Z,18.25
2018-06-13T00:56:12.414Z,18.22
2018-06-13T00:56:38.558Z,18.23
2018-06-13T00:57:04.691Z,18.19
2018-06-13T00:57:31.000Z,18.26
2018-06-13T00:57:57.157Z,18.22
2018-06-13T00:58:23.301Z,18.22
2018-06-13T00:58:49.434Z,18.13
2018-06-13T00:59:15.597Z,18.16
2018-06-13T00:59:41.734Z,18.16
2018-06-13T01:00:07.892Z,18.11
2018-06-13T01:00:34.037Z,18.18
2018-06-13T01:01:00.182Z,18.19
2018-06-13T01:01:26.322Z,18.18
2018-06-13T01:01:52.488Z,18.11
2018-06-13T01:02:18.631Z,18.18
2018-06-13T01:02:44.757Z,18.18
2018-06-13T01:03:10.952Z,18.1
2018-06-13T01:03:37.089Z,18.1
2018-06-13T01:04:03.253Z,18.2
2018-06-13T01:04:29.398Z,18.16
2018-06-13T01:04:55.556Z,18.1
2018-06-13T01:05:21.688Z,18.08
2018-06-13T01:05:47.832Z,18.05
2018-06-13T01:06:13.972Z,18.03
2018-06-13T01:06:40.114Z,18.05
2018-06-13T01:07:06.254Z,18.08
2018-06-13T01:07:32.394Z,18.16
2018-06-13T01:07:58.533Z,18.08
2018-06-13T01:08:24.690Z,18
2018-06-13T01:08:50.828Z,18.16
2018-06-13T01:09:16.997Z,18.15
2018-06-13T01:09:43.130Z,18.1
2018-06-13T01:10:09.271Z,18.15
2018-06-13T01:10:35.428Z,18.16
2018-06-13T01:11:01.564Z,18.19
2018-06-13T01:11:27.733Z,18.18
2018-06-13T01:11:53.876Z,18.15
2018-06-13T01:12:20.006Z,18.16
2018-06-13T01:12:46.166Z,18.15
2018-06-13T01:13:12.308Z,18.16
2018-06-13T01:13:38.450Z,18.11
2018-06-13T01:14:04.596Z,18.15
2018-06-13T01:14:30.732Z,18.16
2018-06-13T01:14:56.875Z,18.22
2018-06-13T01:15:23.032Z,18.1
2018-06-13T01:15:49.166Z,18.08
2018-06-13T01:16:15.312Z,18.07
2018-06-13T01:16:41.453Z,18.01
2018-06-13T01:17:07.597Z,18.13
2018-06-13T01:17:33.729Z,18.07
2018-06-13T01:17:59.868Z,18.08
2018-06-13T01:18:26.054Z,18.1
2018-06-13T01:18:52.190Z,18.1
2018-06-13T01:19:18.336Z,18.15
2018-06-13T01:19:44.479Z,18.1
2018-06-13T01:20:10.615Z,18.16
2018-06-13T01:20:36.755Z,18.16
2018-06-13T01:21:02.891Z,18.07
2018-06-13T01:21:29.083Z,18.1
2018-06-13T01:21:55.212Z,18.08
2018-06-13T01:22:21.357Z,18
2018-06-13T01:22:47.501Z,18.11
2018-06-13T01:23:13.649Z,18.08
2018-06-13T01:23:39.787Z,18.03
2018-06-13T01:24:05.973Z,18.04
2018-06-13T01:24:32.117Z,17.98
2018-06-13T01:24:58.257Z,18.01
2018-06-13T01:25:24.421Z,18.03
2018-06-13T01:25:50.563Z,18.04
2018-06-13T01:26:16.731Z,18.04
2018-06-13T01:26:42.886Z,18.07
2018-06-13T01:27:09.026Z,18.05
2018-06-13T01:27:35.163Z,18.03
2018-06-13T01:28:01.306Z,18.03
2018-06-13T01:28:27.444Z,18
2018-06-13T01:28:53.580Z,18.15
2018-06-13T01:29:19.752Z,18.13
2018-06-13T01:29:45.885Z,18.07
2018-06-13T01:30:12.045Z,18.07
2018-06-13T01:30:38.187Z,18.01
2018-06-13T01:31:04.315Z,18.03
2018-06-13T01:31:30.460Z,18.04
2018-06-13T01:31:56.595Z,18.05
2018-06-13T01:32:22.733Z,18.04
2018-06-13T01:32:48.910Z,18.01
2018-06-13T01:33:15.075Z,18.07
2018-06-13T01:33:41.209Z,18.03
2018-06-13T01:34:07.345Z,18.03
2018-06-13T01:34:33.484Z,18.03
2018-06-13T01:34:59.626Z,18.03
2018-06-13T01:35:25.769Z,18.01
2018-06-13T01:35:51.900Z,18
2018-06-13T01:36:18.041Z,17.98
2018-06-13T01:36:44.177Z,18.04
2018-06-13T01:37:10.343Z,18
2018-06-13T01:37:36.484Z,18
2018-06-13T01:38:02.631Z,18
2018-06-13T01:38:28.792Z,18.05
2018-06-13T01:38:54.930Z,18.01
2018-06-13T01:39:21.075Z,18.03
2018-06-13T01:39:47.201Z,18.04
2018-06-13T01:40:13.338Z,18.05
2018-06-13T01:40:39.511Z,18
2018-06-13T01:41:05.655Z,18.04
2018-06-13T01:41:31.812Z,18.04
2018-06-13T01:41:57.985Z,18.03
2018-06-13T01:42:24.120Z,18.04
2018-06-13T01:42:50.255Z,18.01
2018-06-13T01:43:16.416Z,18.03
2018-06-13T01:43:42.603Z,18.04
2018-06-13T01:44:08.744Z,18.05
2018-06-13T01:44:34.882Z,18.04
2018-06-13T01:45:01.020Z,17.97
2018-06-13T01:45:27.156Z,18
2018-06-13T01:45:53.299Z,18
2018-06-13T01:46:19.438Z,18.03
2018-06-13T01:46:45.576Z,17.97
2018-06-13T01:47:11.719Z,18.03
2018-06-13T01:47:37.859Z,18
2018-06-13T01:48:03.991Z,18
2018-06-13T01:48:30.132Z,17.98
2018-06-13T01:48:56.267Z,17.98
2018-06-13T01:49:22.405Z,17.95
2018-06-13T01:49:48.549Z,18.01
2018-06-13T01:50:14.685Z,17.89
2018-06-13T01:50:40.822Z,17.97
2018-06-13T01:51:06.989Z,17.97
2018-06-13T01:51:33.126Z,17.9
2018-06-13T01:51:59.266Z,17.94
2018-06-13T01:52:25.405Z,17.98
2018-06-13T01:52:51.545Z,17.9
2018-06-13T01:53:17.712Z,17.97
2018-06-13T01:53:43.853Z,17.95
2018-06-13T01:54:10.014Z,17.94
2018-06-13T01:54:36.158Z,18
2018-06-13T01:55:02.293Z,17.92
2018-06-13T01:55:28.430Z,17.94
2018-06-13T01:55:54.576Z,17.97
2018-06-13T01:56:20.714Z,18
2018-06-13T01:56:46.875Z,17.94
2018-06-13T01:57:13.017Z,17.94
2018-06-13T01:57:39.153Z,17.98
2018-06-13T01:58:05.294Z,17.92
2018-06-13T01:58:31.435Z,17.95
2018-06-13T01:58:57.576Z,17.95
2018-06-13T01:59:23.717Z,17.97
2018-06-13T01:59:49.856Z,17.95
2018-06-13T02:00:16.002Z,17.97
2018-06-13T02:00:42.134Z,17.98
2018-06-13T02:01:08.270Z,17.92
2018-06-13T02:01:34.416Z,18.01
2018-06-13T02:02:00.558Z,17.94
2018-06-13T02:02:26.693Z,18
2018-06-13T02:02:52.835Z,18.01
2018-06-13T02:03:18.974Z,17.97
2018-06-13T02:03:45.143Z,17.94
2018-06-13T02:04:11.277Z,17.89
2018-06-13T02:04:37.419Z,17.98
2018-06-13T02:05:03.548Z,17.97
2018-06-13T02:05:29.691Z,17.92
2018-06-13T02:05:55.826Z,18
2018-06-13T02:06:21.957Z,17.98
2018-06-13T02:06:48.098Z,17.95
2018-06-13T02:07:14.249Z,17.89
2018-06-13T02:07:40.390Z,17.92
2018-06-13T02:08:06.578Z,17.97
2018-06-13T02:08:32.739Z,17.86
2018-06-13T02:08:58.881Z,17.82
2018-06-13T02:09:25.015Z,17.87
2018-06-13T02:09:51.157Z,17.87
2018-06-13T02:10:17.294Z,17.82
2018-06-13T02:10:43.430Z,17.89
2018-06-13T02:11:09.573Z,17.79
2018-06-13T02:11:35.738Z,17.8
2018-06-13T02:12:01.911Z,17.8
2018-06-13T02:12:28.050Z,17.76
2018-06-13T02:12:54.197Z,17.76
2018-06-13T02:13:20.384Z,17.85
2018-06-13T02:13:46.521Z,17.82
2018-06-13T02:14:12.663Z,17.8
2018-06-13T02:14:38.807Z,17.78
2018-06-13T02:15:04.967Z,17.79
2018-06-13T02:15:31.107Z,17.79
2018-06-13T02:15:57.245Z,17.83
2018-06-13T02:16:23.409Z,17.78
2018-06-13T02:16:49.552Z,17.8
2018-06-13T02:17:15.693Z,17.83
2018-06-13T02:17:41.829Z,17.83
2018-06-13T02:18:07.969Z,17.83
2018-06-13T02:18:34.110Z,17.79
2018-06-13T02:19:00.270Z,17.83
2018-06-13T02:19:26.413Z,17.78
2018-06-13T02:19:52.582Z,17.79
2018-06-13T02:20:18.744Z,17.74
2018-06-13T02:20:44.879Z,17.74
2018-06-13T02:21:11.030Z,17.76
2018-06-13T02:21:37.388Z,17.68
2018-06-13T02:22:03.822Z,17.63
2018-06-13T02:22:30.952Z,17.59
2018-06-13T02:22:57.426Z,17.6
2018-06-13T02:23:23.565Z,17.65
2018-06-13T02:23:49.730Z,17.56
2018-06-13T02:24:15.867Z,17.71
2018-06-13T02:24:42.000Z,17.59
2018-06-13T02:25:08.140Z,17.68
2018-06-13T02:25:34.281Z,17.65
2018-06-13T02:26:00.417Z,17.68
2018-06-13T02:26:26.555Z,17.65
2018-06-13T02:26:52.692Z,17.68
2018-06-13T02:27:18.859Z,17.56
2018-06-13T02:27:44.972Z,17.68
2018-06-13T02:28:11.117Z,17.7
2018-06-13T02:28:37.253Z,17.64
2018-06-13T02:29:03.386Z,17.6
2018-06-13T02:29:29.535Z,17.64
2018-06-13T02:29:55.675Z,17.57
2018-06-13T02:30:21.810Z,17.65
2018-06-13T02:30:47.983Z,17.6
2018-06-13T02:31:14.141Z,17.64
2018-06-13T02:31:40.308Z,17.6
2018-06-13T02:32:06.491Z,17.64
2018-06-13T02:32:32.645Z,17.78
2018-06-13T02:32:58.804Z,17.67
2018-06-13T02:33:24.945Z,17.71
2018-06-13T02:33:51.099Z,17.72
2018-06-13T02:34:17.245Z,17.78
2018-06-13T02:34:43.411Z,17.59
2018-06-13T02:35:09.597Z,17.56
2018-06-13T02:35:35.784Z,17.6
2018-06-13T02:36:01.946Z,17.59
2018-06-13T02:36:28.101Z,17.59
2018-06-13T02:36:54.263Z,17.64
2018-06-13T02:37:20.423Z,17.6
2018-06-13T02:37:46.589Z,17.6
2018-06-13T02:38:12.776Z,17.64
2018-06-13T02:38:38.910Z,17.63
2018-06-13T02:39:05.075Z,17.65
2018-06-13T02:39:31.238Z,17.63
2018-06-13T02:39:57.400Z,17.64
2018-06-13T02:40:23.615Z,17.67
2018-06-13T02:40:49.758Z,17.63
2018-06-13T02:41:15.921Z,17.63
2018-06-13T02:41:42.065Z,17.68
2018-06-13T02:42:08.204Z,17.6
2018-06-13T02:42:34.393Z,17.57
2018-06-13T02:43:00.556Z,17.68
2018-06-13T02:43:26.698Z,17.68
2018-06-13T02:43:52.840Z,17.64
2018-06-13T02:44:18.975Z,17.67
2018-06-13T02:44:45.165Z,17.6
2018-06-13T02:45:11.303Z,17.7
2018-06-13T02:45:37.472Z,17.68
2018-06-13T02:46:03.652Z,17.6
2018-06-13T02:46:29.791Z,17.64
2018-06-13T02:46:55.930Z,17.67
2018-06-13T02:47:22.098Z,17.68
2018-06-13T02:47:48.261Z,17.64
2018-06-13T02:48:14.406Z,17.63
2018-06-13T02:48:40.544Z,17.6
2018-06-13T02:49:06.703Z,17.63
2018-06-13T02:49:32.858Z,17.63
2018-06-13T02:49:58.995Z,17.64
2018-06-13T02:50:25.150Z,17.57
2018-06-13T02:50:51.296Z,17.6
2018-06-13T02:51:17.460Z,17.63
2018-06-13T02:51:43.623Z,17.57
2018-06-13T02:52:09.812Z,17.63
2018-06-13T02:52:35.950Z,17.65
2018-06-13T02:53:02.111Z,17.57
2018-06-13T02:53:28.261Z,17.64
2018-06-13T02:53:54.436Z,17.63
2018-06-13T02:54:20.605Z,17.63
2018-06-13T02:54:46.763Z,17.64
2018-06-13T02:55:12.921Z,17.64
2018-06-13T02:55:39.063Z,17.57
2018-06-13T02:56:05.202Z,17.68
2018-06-13T02:56:31.341Z,17.65
2018-06-13T02:56:57.535Z,17.63
2018-06-13T02:57:23.676Z,17.59
2018-06-13T02:57:49.810Z,17.63
2018-06-13T02:58:15.949Z,17.65
2018-06-13T02:58:42.111Z,17.6
2018-06-13T02:59:08.432Z,17.63
2018-06-13T02:59:34.657Z,17.59
2018-06-13T03:00:00.799Z,17.51
2018-06-13T03:00:27.147Z,17.51
2018-06-13T03:00:53.453Z,17.54
2018-06-13T03:01:19.699Z,17.63
2018-06-13T03:01:45.979Z,17.46
2018-06-13T03:02:12.350Z,17.63
2018-06-13T03:02:38.521Z,17.67
2018-06-13T03:03:04.652Z,17.6
2018-06-13T03:03:30.816Z,17.52
2018-06-13T03:03:56.956Z,17.63
2018-06-13T03:04:23.121Z,17.64
2018-06-13T03:04:49.295Z,17.64
2018-06-13T03:05:15.447Z,17.68
2018-06-13T03:05:41.623Z,17.7
2018-06-13T03:06:07.782Z,17.65
2018-06-13T03:06:33.923Z,17.57
2018-06-13T03:07:00.092Z,17.67
2018-06-13T03:07:26.252Z,17.64
2018-06-13T03:07:52.411Z,17.7
2018-06-13T03:08:18.553Z,17.57
2018-06-13T03:08:44.735Z,17.57
2018-06-13T03:09:10.877Z,17.56
2018-06-13T03:09:37.015Z,17.51
2018-06-13T03:10:03.175Z,17.46
2018-06-13T03:10:29.336Z,17.49
2018-06-13T03:10:55.478Z,17.45
2018-06-13T03:11:21.666Z,17.49
2018-06-13T03:11:47.828Z,17.51
2018-06-13T03:12:13.973Z,17.63
2018-06-13T03:12:40.113Z,17.45
2018-06-13T03:13:06.276Z,17.49
2018-06-13T03:13:32.462Z,17.52
2018-06-13T03:13:58.602Z,17.49
2018-06-13T03:14:24.749Z,17.51
2018-06-13T03:14:50.958Z,17.54
2018-06-13T03:15:17.088Z,17.56
2018-06-13T03:15:43.253Z,17.51
2018-06-13T03:16:09.465Z,17.51
2018-06-13T03:16:35.598Z,17.54
2018-06-13T03:17:01.788Z,17.48
2018-06-13T03:17:27.951Z,17.54
2018-06-13T03:17:54.092Z,17.49
2018-06-13T03:18:20.226Z,17.49
2018-06-13T03:18:46.373Z,17.6
2018-06-13T03:19:12.532Z,17.54
2018-06-13T03:19:38.695Z,17.51
2018-06-13T03:20:04.833Z,17.49
2018-06-13T03:20:30.998Z,17.51
2018-06-13T03:20:57.163Z,17.41
2018-06-13T03:21:23.317Z,17.52
2018-06-13T03:21:49.491Z,17.48
2018-06-13T03:22:15.613Z,17.48
2018-06-13T03:22:41.764Z,17.51
2018-06-13T03:23:07.897Z,17.51
2018-06-13T03:23:34.040Z,17.44
2018-06-13T03:24:00.252Z,17.45
2018-06-13T03:24:26.389Z,17.39
2018-06-13T03:24:52.532Z,17.52
2018-06-13T03:25:18.680Z,17.41
2018-06-13T03:25:44.820Z,17.44
2018-06-13T03:26:10.964Z,17.48
2018-06-13T03:26:37.108Z,17.39
2018-06-13T03:27:03.247Z,17.39
2018-06-13T03:27:29.417Z,17.41
2018-06-13T03:27:55.551Z,17.36
2018-06-13T03:28:21.691Z,17.49
2018-06-13T03:28:47.835Z,17.42
2018-06-13T03:29:13.978Z,17.46
2018-06-13T03:29:40.133Z,17.45
2018-06-13T03:30:06.298Z,17.54
2018-06-13T03:30:32.488Z,17.46
2018-06-13T03:30:58.623Z,17.48
2018-06-13T03:31:24.792Z,17.39
2018-06-13T03:31:50.924Z,17.36
2018-06-13T03:32:17.136Z,17.38
2018-06-13T03:32:43.292Z,17.39
2018-06-13T03:33:09.442Z,17.46
2018-06-13T03:33:35.581Z,17.38
2018-06-13T03:34:01.722Z,17.33
2018-06-13T03:34:27.862Z,17.39
2018-06-13T03:34:54.005Z,17.33
2018-06-13T03:35:20.169Z,17.3
2018-06-13T03:35:46.307Z,17.38
2018-06-13T03:36:12.465Z,17.31
2018-06-13T03:36:38.614Z,17.42
2018-06-13T03:37:04.743Z,17.34
2018-06-13T03:37:30.884Z,17.34
2018-06-13T03:37:57.015Z,17.44
2018-06-13T03:38:23.155Z,17.41
2018-06-13T03:38:49.300Z,17.36
2018-06-13T03:39:15.436Z,17.36
2018-06-13T03:39:41.597Z,17.45
2018-06-13T03:40:07.739Z,17.41
2018-06-13T03:40:33.897Z,17.41
2018-06-13T03:41:00.045Z,17.39
2018-06-13T03:41:26.219Z,17.38
2018-06-13T03:41:52.358Z,17.36
2018-06-13T03:42:18.504Z,17.42
2018-06-13T03:42:44.634Z,17.38
2018-06-13T03:43:10.774Z,17.36
2018-06-13T03:43:36.933Z,17.34
2018-06-13T03:44:03.076Z,17.36
2018-06-13T03:44:29.213Z,17.39
2018-06-13T03:44:55.350Z,17.38
2018-06-13T03:45:21.514Z,17.42
2018-06-13T03:45:47.653Z,17.49
2018-06-13T03:46:13.789Z,17.45
2018-06-13T03:46:39.933Z,17.48
2018-06-13T03:47:06.095Z,17.44
2018-06-13T03:47:32.229Z,17.45
2018-06-13T03:47:58.373Z,17.42
2018-06-13T03:48:24.509Z,17.36
2018-06-13T03:48:50.651Z,17.45
2018-06-13T03:49:16.791Z,17.44
2018-06-13T03:49:42.930Z,17.41
2018-06-13T03:50:09.069Z,17.46
2018-06-13T03:50:35.213Z,17.41
2018-06-13T03:51:01.357Z,17.44
2018-06-13T03:51:27.515Z,17.45
2018-06-13T03:51:53.659Z,17.46
2018-06-13T03:52:19.795Z,17.41
2018-06-13T03:52:45.926Z,17.44
2018-06-13T03:53:12.065Z,17.42
2018-06-13T03:53:38.201Z,17.45
2018-06-13T03:54:04.346Z,17.42
2018-06-13T03:54:30.488Z,17.42
2018-06-13T03:54:56.624Z,17.39
2018-06-13T03:55:22.767Z,17.48
2018-06-13T03:55:48.929Z,17.42
2018-06-13T03:56:15.100Z,17.44
2018-06-13T03:56:41.231Z,17.34
2018-06-13T03:57:07.368Z,17.34
2018-06-13T03:57:33.505Z,17.45
2018-06-13T03:57:59.648Z,17.45
2018-06-13T03:58:25.815Z,17.46
2018-06-13T03:58:51.957Z,17.45
2018-06-13T03:59:18.096Z,17.46
2018-06-13T03:59:44.265Z,17.36
2018-06-13T04:00:10.398Z,17.46
2018-06-13T04:00:36.538Z,17.45
2018-06-13T04:01:02.680Z,17.39
2018-06-13T04:01:28.830Z,17.44
2018-06-13T04:01:54.980Z,17.45
2018-06-13T04:02:21.121Z,17.46
2018-06-13T04:02:47.264Z,17.42
2018-06-13T04:03:13.399Z,17.41
2018-06-13T04:03:39.538Z,17.51
2018-06-13T04:04:05.677Z,17.34
2018-06-13T04:04:31.814Z,17.44
2018-06-13T04:04:57.956Z,17.48
2018-06-13T04:05:24.123Z,17.46
2018-06-13T04:05:50.247Z,17.46
2018-06-13T04:06:16.563Z,17.44
2018-06-13T04:06:42.710Z,17.51
2018-06-13T04:07:08.864Z,17.46
2018-06-13T04:07:35.008Z,17.52
2018-06-13T04:08:01.152Z,17.52
2018-06-13T04:08:27.294Z,17.45
2018-06-13T04:08:53.436Z,17.51
2018-06-13T04:09:19.573Z,17.48
2018-06-13T04:09:45.712Z,17.44
2018-06-13T04:10:11.877Z,17.48
2018-06-13T04:10:38.021Z,17.51
2018-06-13T04:11:04.155Z,17.45
2018-06-13T04:11:30.319Z,17.48
2018-06-13T04:11:56.477Z,17.49
2018-06-13T04:12:22.644Z,17.51
2018-06-13T04:12:48.783Z,17.48
2018-06-13T04:13:14.920Z,17.51
2018-06-13T04:13:41.059Z,17.54
2018-06-13T04:14:07.220Z,17.45
2018-06-13T04:14:33.385Z,17.45
2018-06-13T04:14:59.551Z,17.46
2018-06-13T04:15:25.716Z,17.46
2018-06-13T04:15:51.852Z,17.49
2018-06-13T04:16:17.994Z,17.46
2018-06-13T04:16:44.131Z,17.48
2018-06-13T04:17:10.276Z,17.46
2018-06-13T04:17:36.408Z,17.49
2018-06-13T04:18:02.547Z,17.51
2018-06-13T04:18:28.686Z,17.48
2018-06-13T04:18:54.845Z,17.42
2018-06-13T04:19:20.987Z,17.45
2018-06-13T04:19:47.129Z,17.45
2018-06-13T04:20:13.264Z,17.39
2018-06-13T04:20:39.397Z,17.45
2018-06-13T04:21:05.545Z,17.45
2018-06-13T04:21:31.678Z,17.54
2018-06-13T04:21:57.815Z,17.52
2018-06-13T04:22:23.990Z,17.48
2018-06-13T04:22:50.175Z,17.54
2018-06-13T04:23:16.315Z,17.49
2018-06-13T04:23:42.452Z,17.48
2018-06-13T04:24:08.591Z,17.48
2018-06-13T04:24:34.744Z,17.51
2018-06-13T04:25:00.887Z,17.41
2018-06-13T04:25:27.029Z,17.46
2018-06-13T04:25:53.173Z,17.57
2018-06-13T04:26:19.304Z,17.59
2018-06-13T04:26:45.436Z,17.6
2018-06-13T04:27:11.574Z,17.64
2018-06-13T04:27:37.734Z,17.57
2018-06-13T04:28:03.865Z,17.6
2018-06-13T04:28:30.005Z,17.56
2018-06-13T04:28:56.162Z,17.48
2018-06-13T04:29:22.304Z,17.45
2018-06-13T04:29:48.443Z,17.48
2018-06-13T04:30:14.579Z,17.51
2018-06-13T04:30:40.722Z,17.54
2018-06-13T04:31:06.863Z,17.46
2018-06-13T04:31:33.008Z,17.48
2018-06-13T04:31:59.143Z,17.39
2018-06-13T04:32:25.290Z,17.45
2018-06-13T04:32:51.429Z,17.39
2018-06-13T04:33:17.584Z,17.48
2018-06-13T04:33:43.745Z,17.41
2018-06-13T04:34:09.887Z,17.45
2018-06-13T04:34:36.032Z,17.48
2018-06-13T04:35:02.171Z,17.48
2018-06-13T04:35:28.306Z,17.51
2018-06-13T04:35:54.532Z,17.52
2018-06-13T04:36:20.622Z,17.48
2018-06-13T04:36:46.752Z,17.45
2018-06-13T04:37:12.922Z,17.44
2018-06-13T04:37:39.060Z,17.51
2018-06-13T04:38:05.207Z,17.45
2018-06-13T04:38:31.362Z,17.45
2018-06-13T04:38:57.508Z,17.51
2018-06-13T04:39:23.642Z,17.48
2018-06-13T04:39:49.776Z,17.44
2018-06-13T04:40:15.915Z,17.51
2018-06-13T04:40:42.080Z,17.48
2018-06-13T04:41:08.220Z,17.56
2018-06-13T04:41:34.361Z,17.44
2018-06-13T04:42:00.555Z,17.51
2018-06-13T04:42:26.666Z,17.51
2018-06-13T04:42:52.805Z,17.51
2018-06-13T04:43:18.959Z,17.45
2018-06-13T04:43:45.085Z,17.49
2018-06-13T04:44:11.231Z,17.56
2018-06-13T04:44:37.392Z,17.48
2018-06-13T04:45:03.539Z,17.49
2018-06-13T04:45:29.674Z,17.42
2018-06-13T04:45:55.817Z,17.42
2018-06-13T04:46:21.952Z,17.38
2018-06-13T04:46:48.099Z,17.41
2018-06-13T04:47:14.237Z,17.44
2018-06-13T04:47:40.376Z,17.46
2018-06-13T04:48:06.519Z,17.48
2018-06-13T04:48:32.656Z,17.44
2018-06-13T04:48:58.822Z,17.39
2018-06-13T04:49:24.957Z,17.46
2018-06-13T04:49:51.103Z,17.48
2018-06-13T04:50:17.236Z,17.46
2018-06-13T04:50:43.382Z,17.52
2018-06-13T04:51:09.525Z,17.45
2018-06-13T04:51:35.685Z,17.48
2018-06-13T04:52:01.821Z,17.38
2018-06-13T04:52:27.976Z,17.42
2018-06-13T04:52:54.145Z,17.45
2018-06-13T04:53:20.283Z,17.45
2018-06-13T04:53:46.419Z,17.42
2018-06-13T04:54:12.561Z,17.39
2018-06-13T04:54:38.706Z,17.45
2018-06-13T04:55:04.843Z,17.46
2018-06-13T04:55:31.026Z,17.45
2018-06-13T04:55:57.176Z,17.44
2018-06-13T04:56:23.316Z,17.51
2018-06-13T04:56:49.477Z,17.44
2018-06-13T04:57:15.641Z,17.51
2018-06-13T04:57:41.777Z,17.44
2018-06-13T04:58:07.941Z,17.44
2018-06-13T04:58:34.078Z,17.52
2018-06-13T04:59:00.216Z,17.51
2018-06-13T04:59:26.358Z,17.49
2018-06-13T04:59:52.500Z,17.52
2018-06-13T05:00:18.634Z,17.56
2018-06-13T05:00:44.773Z,17.64
2018-06-13T05:01:10.942Z,17.64
2018-06-13T05:01:37.084Z,17.57
2018-06-13T05:02:03.246Z,17.64
2018-06-13T05:02:29.389Z,17.65
2018-06-13T05:02:55.520Z,17.64
2018-06-13T05:03:21.665Z,17.59
2018-06-13T05:03:47.851Z,17.63
2018-06-13T05:04:13.995Z,17.63
2018-06-13T05:04:40.133Z,17.68
2018-06-13T05:05:06.269Z,17.67
2018-06-13T05:05:32.408Z,17.54
2018-06-13T05:05:58.544Z,17.57
2018-06-13T05:06:24.679Z,17.63
2018-06-13T05:06:50.819Z,17.64
2018-06-13T05:07:16.977Z,17.63
2018-06-13T05:07:43.113Z,17.6
2018-06-13T05:08:09.251Z,17.57
2018-06-13T05:08:35.392Z,17.68
2018-06-13T05:09:01.532Z,17.7
2018-06-13T05:09:27.671Z,17.72
2018-06-13T05:09:53.812Z,17.68
2018-06-13T05:10:19.952Z,17.78
2018-06-13T05:10:46.096Z,17.74
2018-06-13T05:11:12.236Z,17.74
2018-06-13T05:11:38.382Z,17.83
2018-06-13T05:12:04.523Z,17.8
2018-06-13T05:12:30.666Z,17.9
2018-06-13T05:12:56.793Z,17.8
2018-06-13T05:13:22.937Z,17.82
2018-06-13T05:13:49.077Z,17.83
2018-06-13T05:14:15.222Z,17.86
2018-06-13T05:14:41.386Z,17.92
2018-06-13T05:15:07.552Z,17.98
2018-06-13T05:15:33.719Z,17.98
2018-06-13T05:15:59.859Z,18
2018-06-13T05:16:26.023Z,17.98
2018-06-13T05:16:52.285Z,17.92
2018-06-13T05:17:18.518Z,18.05
2018-06-13T05:17:44.733Z,18.1
2018-06-13T05:18:10.920Z,18.01
2018-06-13T05:18:37.061Z,18.11
2018-06-13T05:19:03.854Z,18.2
2018-06-13T05:19:29.950Z,18.15
2018-06-13T05:19:56.174Z,18.13
2018-06-13T05:20:22.313Z,18.1
2018-06-13T05:20:48.478Z,18.07
2018-06-13T05:21:14.638Z,18.19
2018-06-13T05:21:40.807Z,18.13
2018-06-13T05:22:06.965Z,18.16
2018-06-13T05:22:33.097Z,18.19
2018-06-13T05:22:59.238Z,18.07
2018-06-13T05:23:25.383Z,18.19
2018-06-13T05:23:51.520Z,18.15
2018-06-13T05:24:17.689Z,18.15
2018-06-13T05:24:43.830Z,18.1
2018-06-13T05:25:09.961Z,18.15
2018-06-13T05:25:36.104Z,18.18
2018-06-13T05:26:02.306Z,18.13
2018-06-13T05:26:28.415Z,18.2
2018-06-13T05:26:54.555Z,18.18
2018-06-13T05:27:20.699Z,18.18
2018-06-13T05:27:46.865Z,18.13
2018-06-13T05:28:13.005Z,18.08
2018-06-13T05:28:39.216Z,18.19
2018-06-13T05:29:05.298Z,18.11
2018-06-13T05:29:31.434Z,18.07
2018-06-13T05:29:57.578Z,18.13
2018-06-13T05:30:23.728Z,18.19
2018-06-13T05:30:49.865Z,18.15
2018-06-13T05:31:16.004Z,18.11
2018-06-13T05:31:42.144Z,18.2
2018-06-13T05:32:08.282Z,18.23
2018-06-13T05:32:34.418Z,18.23
2018-06-13T05:33:00.577Z,18.33
2018-06-13T05:33:26.720Z,18.23
2018-06-13T05:33:52.863Z,18.25
2018-06-13T05:34:19.001Z,18.28
2018-06-13T05:34:45.141Z,18.28
2018-06-13T05:35:11.301Z,18.26
2018-06-13T05:35:37.469Z,18.34
2018-06-13T05:36:03.610Z,18.34
2018-06-13T05:36:29.743Z,18.41
2018-06-13T05:36:55.882Z,18.35
2018-06-13T05:37:22.050Z,18.38
2018-06-13T05:37:48.194Z,18.35
2018-06-13T05:38:14.338Z,18.4
2018-06-13T05:38:40.477Z,18.41